Time;durP1;ratioP1;P1;durP2;ratioP2;P2;SDS_P1;SDS_P2;PMS_P1;PMS_P2;Temp;Humidity;BMP_temperature;BMP_pressure;BME280_temperature;BME280_humidity;BME280_pressure;Samples;Min_cycle;Max_cycle;Signal;HPM_P1;HPM_P2
2022/07/09 00:02:12;;;;;;;10.20;6.78;;;14.50;99.90;;;15.04;100.00;99326.75;5020317;28;121563;-74
2022/07/09 00:04:40;;;;;;;8.35;6.07;;;14.40;99.90;;;14.98;100.00;99326.19;5021867;28;130059;-75
2022/07/09 00:07:09;;;;;;;10.13;6.57;;;14.40;99.90;;;14.96;100.00;99323.03;5019743;28;129211;-76
2022/07/09 00:09:39;;;;;;;8.98;6.53;;;14.40;99.90;;;14.95;100.00;99326.88;5020014;28;120908;-76
2022/07/09 00:12:09;;;;;;;10.27;6.35;;;14.40;99.90;;;14.92;100.00;99319.38;5019999;28;119388;-74
2022/07/09 00:14:37;;;;;;;12.10;6.40;;;14.40;99.90;;;14.91;100.00;99331.44;5004827;28;130874;-76
2022/07/09 00:17:06;;;;;;;10.80;6.20;;;14.30;99.90;;;14.89;100.00;99328.25;5020071;28;129640;-76
2022/07/09 00:19:34;;;;;;;11.57;7.53;;;14.30;99.90;;;14.91;100.00;99332.25;5004938;28;118229;-77
2022/07/09 00:22:04;;;;;;;10.23;6.80;;;14.30;99.90;;;14.94;100.00;99336.22;4988433;28;118212;-78
2022/07/09 00:24:32;;;;;;;9.70;6.55;;;14.30;99.90;;;14.93;100.00;99323.72;5018467;28;130729;-76
2022/07/09 00:27:02;;;;;;;12.38;6.53;;;14.20;99.90;;;14.91;100.00;99332.25;5019609;28;129556;-77
2022/07/09 00:29:30;;;;;;;13.18;7.35;;;14.20;99.90;;;14.91;100.00;99331.44;5020037;28;119652;-76
2022/07/09 00:31:59;;;;;;;11.05;6.45;;;14.20;99.90;;;14.88;100.00;99338.41;5019843;28;120198;-76
2022/07/09 00:34:27;;;;;;;13.25;7.22;;;14.20;99.90;;;14.81;100.00;99334.66;5004765;28;129207;-77
2022/07/09 00:36:56;;;;;;;11.85;7.18;;;14.20;99.90;;;14.77;100.00;99336.47;5019302;28;129807;-76
2022/07/09 00:39:25;;;;;;;11.50;6.65;;;14.20;99.90;;;14.74;100.00;99337.97;5019776;28;119743;-77
2022/07/09 00:42:05;;;;;;;9.45;6.50;;;14.20;99.90;;;14.72;100.00;99334.78;5020045;28;119720;-77
2022/07/09 00:44:34;;;;;;;8.48;6.78;;;14.20;99.90;;;14.74;100.00;99341.50;5004719;28;129035;-78
2022/07/09 00:47:03;;;;;;;8.88;6.10;;;14.20;99.90;;;14.76;100.00;99334.88;5019562;28;129423;-77
2022/07/09 00:49:32;;;;;;;10.75;7.10;;;14.20;99.90;;;14.77;100.00;99336.47;5003388;28;121490;-78
2022/07/09 00:52:01;;;;;;;10.25;7.03;;;14.20;99.90;;;14.78;100.00;99330.66;5019556;28;121705;-78
2022/07/09 00:54:30;;;;;;;10.00;6.32;;;14.20;99.90;;;14.80;100.00;99333.06;5022212;28;130996;-77
2022/07/09 00:56:59;;;;;;;8.90;6.43;;;14.20;99.90;;;14.76;100.00;99332.13;5020881;28;130712;-77
2022/07/09 00:59:29;;;;;;;12.82;6.32;;;14.10;99.90;;;14.63;100.00;99326.72;5008065;28;119952;-75
2022/07/09 01:01:58;;;;;;;11.93;6.95;;;14.10;99.90;;;14.63;100.00;99331.38;5005295;28;119650;-78
2022/07/09 01:04:27;;;;;;;9.90;6.75;;;14.10;99.90;;;14.67;100.00;99322.16;5022587;28;129892;-78
2022/07/09 01:06:57;;;;;;;11.73;7.03;;;14.10;99.90;;;14.63;100.00;99324.00;5022093;28;130535;-76
2022/07/09 01:09:26;;;;;;;11.73;7.00;;;14.10;99.90;;;14.68;100.00;99317.50;5008072;28;118114;-76
2022/07/09 01:11:56;;;;;;;10.02;6.30;;;14.20;99.90;;;14.80;100.00;99322.91;5022964;28;119393;-76
2022/07/09 01:14:25;;;;;;;11.68;6.40;;;14.30;99.90;;;14.90;100.00;99324.41;5021313;28;129830;-77
2022/07/09 01:17:02;;;;;;;10.75;7.38;;;14.30;99.90;;;14.88;100.00;99316.53;5005307;28;129944;-79
2022/07/09 01:19:32;;;;;;;10.07;7.13;;;14.30;99.90;;;14.92;100.00;99313.91;5025179;28;119644;-79
2022/07/09 01:22:03;;;;;;;10.73;6.88;;;14.40;99.90;;;15.02;100.00;99310.72;5024890;28;119685;-78
2022/07/09 01:24:32;;;;;;;10.07;6.72;;;14.40;99.90;;;15.03;100.00;99316.97;5025707;28;130406;-79
2022/07/09 01:27:00;;;;;;;9.38;6.88;;;14.40;99.90;;;15.01;100.00;99314.56;5025430;28;129613;-78
2022/07/09 01:29:29;;;;;;;10.50;6.05;;;14.40;99.90;;;15.05;100.00;99304.56;5026589;28;120075;-79
2022/07/09 01:31:57;;;;;;;11.90;6.75;;;14.50;99.90;;;15.12;100.00;99308.63;5026249;28;119564;-78
2022/07/09 01:34:26;;;;;;;10.68;6.68;;;14.50;99.90;;;15.19;100.00;99300.63;5024811;28;130082;-78
2022/07/09 01:36:54;;;;;;;9.05;6.43;;;14.50;99.90;;;15.21;100.00;99295.63;5022422;28;130041;-78
2022/07/09 01:39:25;;;;;;;12.60;7.03;;;14.60;99.90;;;15.23;100.00;99293.34;5007749;28;121023;-77
2022/07/09 01:41:53;;;;;;;11.43;6.53;;;14.60;99.90;;;15.22;100.00;99286.25;5020955;28;121714;-77
2022/07/09 01:44:22;;;;;;;10.95;6.68;;;14.60;99.90;;;15.21;100.00;99296.41;5007052;28;129885;-77
2022/07/09 01:46:51;;;;;;;9.13;7.30;;;14.50;99.90;;;15.18;100.00;99293.59;5020845;28;129480;-77
2022/07/09 01:49:20;;;;;;;9.90;6.80;;;14.50;99.90;;;15.14;100.00;99284.47;5022437;28;119463;-78
2022/07/09 01:51:48;;;;;;;11.65;6.32;;;14.50;99.90;;;15.14;100.00;99279.78;5004784;28;119468;-77
2022/07/09 01:54:17;;;;;;;10.25;6.93;;;14.50;99.90;;;15.12;100.00;99282.09;5024334;28;130096;-77
2022/07/09 01:56:47;;;;;;;10.35;6.07;;;14.50;99.90;;;15.06;100.00;99278.78;5022104;28;129392;-76
2022/07/09 01:59:15;;;;;;;10.18;6.80;;;14.40;99.90;;;14.97;100.00;99278.16;5007507;28;118893;-77
2022/07/09 02:01:44;;;;;;;12.57;6.18;;;14.40;99.90;;;14.97;100.00;99280.88;5022436;28;119692;-77
2022/07/09 02:04:13;;;;;;;11.35;6.32;;;14.40;99.90;;;15.02;100.00;99282.56;5022541;28;129152;-76
2022/07/09 02:06:42;;;;;;;10.40;6.68;;;14.40;99.90;;;15.00;100.00;99276.66;5021751;28;129323;-77
2022/07/09 02:09:11;;;;;;;8.48;6.90;;;14.40;99.90;;;14.99;100.00;99284.06;5020810;27;119524;-77
2022/07/09 02:11:39;;;;;;;10.75;6.97;;;14.30;99.90;;;14.98;100.00;99285.22;5007584;28;118431;-76
2022/07/09 02:14:09;;;;;;;9.65;6.72;;;14.30;99.90;;;14.98;100.00;99287.94;5021602;28;130159;-77
2022/07/09 02:16:38;;;;;;;9.25;6.72;;;14.30;99.90;;;14.99;100.00;99295.00;5005764;28;128699;-76
2022/07/09 02:19:07;;;;;;;11.68;7.63;;;14.30;99.90;;;15.04;100.00;99293.97;5021899;28;120051;-77
2022/07/09 02:21:36;;;;;;;10.05;7.43;;;14.40;99.90;;;15.10;100.00;99287.13;5024124;28;118394;-77
2022/07/09 02:24:05;;;;;;;12.10;7.10;;;14.40;99.90;;;15.15;100.00;99286.09;5006595;28;129517;-77
2022/07/09 02:26:34;;;;;;;9.75;7.03;;;14.50;99.90;;;15.23;100.00;99294.13;5021804;28;129494;-76
2022/07/09 02:29:02;;;;;;;10.15;6.85;;;14.60;99.90;;;15.42;100.00;99290.72;5020572;28;122286;-75
2022/07/09 02:31:32;;;;;;;11.45;7.00;;;14.70;99.90;;;15.62;100.00;99293.59;5020612;28;121530;-77
2022/07/09 02:34:01;;;;;;;10.50;7.05;;;14.80;99.90;;;15.72;100.00;99293.09;5021332;28;129907;-77
2022/07/09 02:36:30;;;;;;;11.95;7.53;;;14.90;99.90;;;15.85;100.00;99296.59;5006487;28;129100;-77
2022/07/09 02:38:58;;;;;;;12.35;6.82;;;15.00;99.90;;;15.93;100.00;99292.09;5021215;28;119721;-77
2022/07/09 02:41:27;;;;;;;11.38;6.55;;;15.10;99.90;;;15.95;100.00;99285.09;5021515;28;119468;-75
2022/07/09 02:43:55;;;;;;;9.80;5.85;;;15.10;99.90;;;15.89;100.00;99291.19;5021114;28;130088;-74
2022/07/09 02:46:24;;;;;;;9.82;6.07;;;15.00;99.90;;;15.85;100.00;99290.28;5021301;28;130227;-77
2022/07/09 02:48:54;;;;;;;10.40;6.57;;;15.00;99.90;;;15.90;100.00;99287.31;5021282;28;120035;-74
2022/07/09 02:51:22;;;;;;;11.75;6.03;;;15.00;99.90;;;16.02;100.00;99287.25;5021308;28;119468;-75
2022/07/09 02:53:51;;;;;;;9.98;6.13;;;15.10;99.90;;;16.15;100.00;99283.25;5021601;28;130472;-76
2022/07/09 02:56:19;;;;;;;11.80;6.75;;;15.20;99.90;;;16.31;100.00;99286.00;5020910;28;129320;-75
2022/07/09 02:58:48;;;;;;;9.00;6.10;;;15.40;93.70;;;16.47;100.00;99279.66;5020953;28;119500;-74
2022/07/09 03:01:17;;;;;;;8.80;6.30;;;15.40;60.30;;;16.58;100.00;99283.47;5021145;28;119444;-74
2022/07/09 03:03:46;;;;;;;10.93;6.78;;;15.50;5.30;;;16.66;100.00;99274.25;5005994;28;130920;-74
2022/07/09 03:06:16;;;;;;;12.23;5.70;;;15.60;1.00;;;16.80;100.00;99283.94;5019153;28;129286;-75
2022/07/09 03:08:44;;;;;;;8.45;5.95;;;15.70;1.00;;;16.96;100.00;99276.47;5020974;28;119800;-73
2022/07/09 03:11:13;;;;;;;11.18;5.93;;;15.90;1.00;;;17.22;99.98;99278.56;5021361;28;119472;-75
2022/07/09 03:13:41;;;;;;;10.82;6.30;;;16.10;1.00;;;17.42;98.06;99278.53;5005713;28;130649;-73
2022/07/09 03:16:11;;;;;;;8.60;6.05;;;16.20;1.00;;;17.57;96.50;99283.16;5002528;28;129108;-75
2022/07/09 03:18:40;;;;;;;6.88;5.00;;;16.30;1.00;;;17.68;95.82;99293.53;5019504;28;122013;-75
2022/07/09 03:21:11;;;;;;;10.70;5.15;;;16.40;1.00;;;17.96;94.64;99287.78;5019369;28;121730;-76
2022/07/09 03:23:41;;;;;;;10.32;5.47;;;16.60;1.00;;;18.13;93.71;99286.50;5020677;28;130445;-75
2022/07/09 03:26:09;;;;;;;12.57;5.47;;;16.70;1.00;;;18.15;92.77;99284.16;5020372;28;129494;-76
2022/07/09 03:28:38;;;;;;;10.57;5.60;;;16.70;1.00;;;17.82;92.79;99282.81;5020343;28;119969;-76
2022/07/09 03:31:06;;;;;;;8.98;5.97;;;16.40;1.00;;;17.70;94.70;99280.22;5005948;28;118593;-75
2022/07/09 03:33:35;;;;;;;11.50;7.00;;;16.40;1.00;;;17.74;94.85;99286.59;5002497;28;129888;-75
2022/07/09 03:36:04;;;;;;;13.57;6.90;;;16.40;1.00;;;17.70;95.49;99285.72;4989442;28;127964;-75
2022/07/09 03:38:33;;;;;;;12.48;6.45;;;16.40;1.00;;;17.73;95.33;99279.50;5005892;28;118776;-74
2022/07/09 03:41:03;;;;;;;11.77;6.50;;;16.50;1.00;;;17.80;94.77;99279.66;5020590;28;120226;-75
2022/07/09 03:43:31;;;;;;;11.05;6.97;;;16.60;1.00;;;17.88;94.88;99275.88;5017839;28;129951;-74
2022/07/09 03:46:00;;;;;;;11.70;6.68;;;16.70;1.00;;;17.95;94.60;99270.53;5019990;28;129492;-75
2022/07/09 03:48:28;;;;;;;9.65;6.03;;;16.70;1.00;;;18.07;94.14;99271.50;5020205;28;120103;-76
2022/07/09 03:50:57;;;;;;;10.77;5.72;;;16.80;1.00;;;18.18;93.65;99277.94;5020361;28;119547;-75
2022/07/09 03:53:26;;;;;;;11.05;5.50;;;16.90;1.00;;;18.18;91.14;99283.44;5021323;28;130300;-75
2022/07/09 03:55:54;;;;;;;10.85;5.90;;;16.90;1.00;;;18.22;91.92;99281.53;5005303;28;129373;-73
2022/07/09 03:58:24;;;;;;;11.00;5.78;;;17.00;1.00;;;18.24;91.03;99281.97;5020354;28;119913;-75
2022/07/09 04:00:55;;;;;;;9.98;4.53;;;17.00;1.00;;;18.22;88.52;99278.78;5024639;28;103216;-76
2022/07/09 04:03:23;;;;;;;10.18;4.50;;;17.00;1.00;;;18.27;88.24;99270.25;5019915;28;129940;-77
2022/07/09 04:05:52;;;;;;;17.55;6.15;;;17.10;1.00;;;18.44;90.05;99279.13;5023135;28;129040;-76
2022/07/09 04:08:20;;;;;;;7.30;4.00;;;17.20;1.00;;;18.55;86.31;99277.31;5018895;28;121929;-74
2022/07/09 04:10:49;;;;;;;9.32;4.00;;;17.10;1.00;;;18.68;85.13;99281.44;5005109;28;121671;-78
2022/07/09 04:13:17;;;;;;;6.80;4.00;;;17.20;1.00;;;18.91;84.57;99268.81;5019860;28;129742;-76
2022/07/09 04:15:47;;;;;;;5.97;3.60;;;17.30;1.00;;;19.15;83.43;99278.53;5020043;28;129920;-77
2022/07/09 04:18:17;;;;;;;5.90;3.85;;;17.60;1.00;;;19.29;82.30;99273.22;5005359;28;119475;-76
2022/07/09 04:20:45;;;;;;;6.10;3.60;;;17.60;1.00;;;19.36;81.94;99273.28;5019859;28;120156;-73
2022/07/09 04:23:13;;;;;;;7.53;3.85;;;17.50;1.00;;;19.29;82.16;99273.22;5019324;28;129723;-75
2022/07/09 04:25:42;;;;;;;7.15;3.67;;;17.50;1.00;;;19.38;82.03;99281.16;5019784;28;129449;-74
2022/07/09 04:28:10;;;;;;;8.05;4.00;;;17.40;1.00;;;19.32;82.89;99277.97;5019693;28;119662;-76
2022/07/09 04:30:40;;;;;;;10.23;4.43;;;17.40;1.00;;;19.35;82.57;99276.41;5003956;28;118726;-76
2022/07/09 04:33:10;;;;;;;7.68;3.97;;;17.30;1.00;;;19.48;82.62;99279.69;5017754;28;129696;-76
2022/07/09 04:35:39;;;;;;;7.10;3.60;;;17.40;1.00;;;19.58;81.93;99279.78;5021582;28;129234;-76
2022/07/09 04:38:07;;;;;;;7.28;3.88;;;17.50;1.00;;;19.60;82.01;99276.66;5021760;28;119019;-75
2022/07/09 04:40:36;;;;;;;7.03;3.88;;;17.50;1.00;;;19.70;80.85;99272.44;5019668;28;119983;-75
2022/07/09 04:43:05;;;;;;;5.13;3.53;;;17.40;1.00;;;19.49;81.49;99281.25;5004198;28;129836;-76
2022/07/09 04:45:34;;;;;;;6.53;3.88;;;17.00;1.00;;;19.42;83.07;99278.44;5019367;28;129535;-75
2022/07/09 04:48:02;;;;;;;6.35;3.45;;;17.20;1.00;;;19.54;82.29;99272.66;5004933;28;118567;-77
2022/07/09 04:50:32;;;;;;;5.18;3.40;;;17.40;1.00;;;19.69;81.52;99279.91;5004738;28;119602;-75
2022/07/09 04:53:01;;;;;;;5.28;3.28;;;17.50;1.00;;;19.80;81.17;99284.75;5020009;28;129796;-76
2022/07/09 04:55:30;;;;;;;6.60;3.42;;;17.70;1.00;;;19.87;80.76;99276.56;5019441;28;129973;-76
2022/07/09 04:57:58;;;;;;;7.53;3.95;;;17.60;1.00;;;20.04;80.16;99273.16;5018148;28;121834;-73
2022/07/09 05:00:27;;;;;;;5.38;3.75;;;17.80;1.00;;;20.27;79.64;99274.91;5003511;28;120671;-76
2022/07/09 05:02:56;;;;;;;7.95;4.07;;;18.00;1.00;;;20.44;78.81;99276.22;5001102;28;129832;-77
2022/07/09 05:05:25;;;;;;;5.38;3.25;;;18.00;1.00;;;20.73;77.79;99274.44;5018778;28;129715;-77
2022/07/09 05:07:55;;;;;;;6.13;3.47;;;18.40;1.00;;;20.83;76.09;99273.72;5022651;28;119542;-77
2022/07/09 05:10:25;;;;;;;7.82;4.32;;;18.00;1.00;;;20.79;76.16;99272.91;5018206;28;120166;-79
2022/07/09 05:12:53;;;;;;;7.00;3.40;;;18.10;1.00;;;20.81;76.24;99281.56;5019684;28;130429;-75
2022/07/09 05:15:22;;;;;;;5.60;3.50;;;18.10;1.00;;;20.91;75.69;99274.56;5019263;28;129431;-75
2022/07/09 05:17:50;;;;;;;6.40;3.50;;;18.30;1.00;;;20.99;76.00;99269.88;5004181;28;118483;-76
2022/07/09 05:20:19;;;;;;;6.38;3.40;;;18.50;1.00;;;20.99;76.67;99270.66;5019058;28;120157;-74
2022/07/09 05:22:48;;;;;;;8.48;3.20;;;18.70;1.00;;;21.21;75.21;99270.72;5019511;28;129576;-74
2022/07/09 05:25:18;;;;;;;8.40;3.22;;;18.70;99.90;;;21.34;75.02;99268.41;5019007;28;130283;-73
2022/07/09 05:27:48;;;;;;;8.02;3.22;;;18.70;1.00;;;21.63;74.35;99263.75;5018959;28;119601;-73
2022/07/09 05:30:17;;;;;;;9.57;3.67;;;19.10;99.90;;;21.78;73.58;99259.03;5019432;28;119466;-74
2022/07/09 05:32:46;;;;;;;5.75;3.22;;;19.00;99.90;;;21.76;74.53;99258.66;5018743;28;131134;-75
2022/07/09 05:35:14;;;;;;;9.77;4.25;;;18.90;1.00;;;21.85;72.97;99267.34;5018550;28;129482;-77
2022/07/09 05:37:43;;;;;;;8.70;3.60;;;18.90;99.90;;;21.77;73.47;99268.53;5018839;28;119910;-75
2022/07/09 05:40:13;;;;;;;5.97;3.40;;;18.90;99.90;;;21.66;73.35;99276.78;5019758;28;119693;-75
2022/07/09 05:42:43;;;;;;;5.80;3.10;;;18.50;1.00;;;21.27;75.27;99279.41;5005306;28;129806;-75
2022/07/09 05:45:12;;;;;;;7.32;2.88;;;17.80;1.00;;;21.17;76.10;99276.22;5021880;28;129324;-76
2022/07/09 05:47:41;;;;;;;8.60;3.42;;;18.10;1.00;;;21.18;77.09;99266.78;5006241;28;121484;-75
2022/07/09 05:50:10;;;;;;;5.55;3.60;;;18.50;1.00;;;21.25;77.05;99271.50;5007653;28;121505;-77
2022/07/09 05:52:39;;;;;;;8.90;3.20;;;18.70;1.00;;;21.41;76.20;99262.91;5022170;28;130679;-76
2022/07/09 05:55:08;;;;;;;6.22;2.90;;;18.90;1.00;;;21.65;75.23;99260.63;5022081;28;129137;-76
2022/07/09 05:57:37;;;;;;;7.22;2.88;;;19.10;1.00;;;21.80;73.87;99266.94;5022377;28;120350;-75
2022/07/09 06:00:09;;;;;;;6.85;2.70;;;18.90;1.00;;;21.83;73.57;99266.13;5022002;28;119321;-76
2022/07/09 06:02:38;;;;;;;7.07;2.47;;;19.20;99.90;;;21.99;72.09;99265.78;5006964;28;128787;-76
2022/07/09 06:05:08;;;;;;;5.60;2.70;;;19.10;99.90;;;22.24;71.95;99257.47;5022565;28;129518;-77
2022/07/09 06:07:36;;;;;;;4.20;2.30;;;19.50;99.90;;;22.52;70.01;99259.44;5022285;28;119402;-77
2022/07/09 06:10:06;;;;;;;4.80;2.28;;;19.90;99.90;;;22.75;68.55;99258.97;5021977;28;119897;-76
2022/07/09 06:12:35;;;;;;;5.50;2.00;;;19.70;99.90;;;22.76;66.49;99270.81;5020488;28;130084;-76
2022/07/09 06:15:04;;;;;;;4.97;1.92;;;19.20;99.90;;;22.71;66.09;99257.41;5021901;28;130526;-75
2022/07/09 06:17:34;;;;;;;3.45;1.90;;;19.30;99.90;;;22.82;65.58;99251.84;5021922;28;119510;-75
2022/07/09 06:20:02;;;;;;;3.88;1.95;;;19.40;99.90;;;23.00;65.81;99262.81;5021834;28;119562;-76
2022/07/09 06:22:31;;;;;;;2.67;1.70;;;19.60;99.90;;;23.29;63.98;99258.75;5021838;28;129812;-75
2022/07/09 06:25:00;;;;;;;2.80;1.70;;;19.40;99.90;;;23.27;64.45;99255.63;5006600;28;129686;-75
2022/07/09 06:27:28;;;;;;;2.92;1.60;;;19.60;99.90;;;23.55;63.12;99259.41;5021596;28;119502;-76
2022/07/09 06:29:57;;;;;;;4.40;2.10;;;19.80;99.90;;;23.15;64.40;99258.84;5021873;28;120140;-76
2022/07/09 06:32:25;;;;;;;3.30;1.85;;;19.80;99.90;;;23.21;64.50;99250.91;5021230;28;129804;-79
2022/07/09 06:34:55;;;;;;;3.05;1.90;;;19.70;99.90;;;23.17;64.69;99244.59;5006540;28;128527;-74
2022/07/09 06:37:24;;;;;;;6.03;1.98;;;19.60;99.90;;;23.48;64.29;99249.19;5020240;28;121678;-77
2022/07/09 06:39:55;;;;;;;4.30;2.30;;;20.00;99.90;;;23.79;63.75;99245.78;5021696;28;121876;-75
2022/07/09 06:42:23;;;;;;;19.02;3.47;;;20.20;99.90;;;23.84;62.15;99248.97;5021246;28;130472;-78
2022/07/09 06:45:00;;;;;;;6.88;2.28;;;19.80;99.90;;;23.89;61.65;99244.16;5006297;28;129002;-78
2022/07/09 06:47:29;;;;;;;7.13;2.33;;;19.90;99.90;;;24.11;61.95;99242.03;5021513;28;119808;-77
2022/07/09 06:49:59;;;;;;;51.40;8.38;;;20.30;99.90;;;24.17;60.76;99248.69;5006547;28;118408;-78
2022/07/09 06:52:28;;;;;;;3.90;2.05;;;20.00;99.90;;;23.98;62.71;99242.50;5005841;28;130306;-78
2022/07/09 06:54:56;;;;;;;5.55;2.15;;;19.80;99.90;;;24.03;63.38;99244.06;4989047;28;128668;-78
2022/07/09 06:57:25;;;;;;;3.42;2.08;;;20.20;99.90;;;23.79;61.02;99237.47;5006619;28;119484;-78
2022/07/09 06:59:54;;;;;;;7.88;2.40;;;19.90;99.90;;;23.56;64.24;99238.84;5021496;28;119962;-78
2022/07/09 07:02:23;;;;;;;4.47;2.20;;;19.70;99.90;;;23.48;64.37;99231.75;5019820;28;129792;-79
2022/07/09 07:04:52;;;;;;;3.78;2.15;;;19.90;99.90;;;23.64;63.16;99245.91;5020713;28;130188;-74
2022/07/09 07:07:21;;;;;;;4.38;2.13;;;20.00;99.90;;;23.68;63.47;99235.59;5006093;28;118797;-77
2022/07/09 07:09:50;;;;;;;4.78;2.08;;;19.90;99.90;;;23.71;62.42;99235.97;5021195;28;119528;-79
2022/07/09 07:12:19;;;;;;;4.93;1.90;;;19.60;99.90;;;23.61;63.13;99230.09;5020819;28;129786;-77
2022/07/09 07:14:47;;;;;;;6.18;2.60;;;19.70;99.90;;;23.53;63.76;99225.81;5021040;28;130425;-79
2022/07/09 07:17:15;;;;;;;11.38;2.40;;;19.50;99.90;;;23.57;62.74;99225.78;5021321;28;119971;-77
2022/07/09 07:19:44;;;;;;;7.70;2.65;;;19.50;99.90;;;23.78;63.78;99227.59;5003593;28;119622;-78
2022/07/09 07:22:13;;;;;;;3.20;2.00;;;20.10;99.90;;;23.82;62.89;99225.59;5020822;28;130486;-75
2022/07/09 07:24:43;;;;;;;5.95;2.03;;;20.00;99.90;;;24.10;61.36;99227.34;5020635;28;129611;-77
2022/07/09 07:27:11;;;;;;;11.25;2.70;;;20.10;99.90;;;23.85;62.25;99224.81;5004898;28;121069;-80
2022/07/09 07:29:41;;;;;;;8.45;2.92;;;19.80;99.90;;;23.55;63.07;99226.19;5020313;28;121738;-78
2022/07/09 07:32:10;;;;;;;14.57;3.03;;;19.40;99.90;;;23.56;63.34;99222.22;5020824;28;129621;-79
2022/07/09 07:34:38;;;;;;;10.35;2.63;;;19.50;99.90;;;23.56;63.26;99219.47;5020681;28;129683;-78
2022/07/09 07:37:07;;;;;;;6.47;2.70;;;19.60;99.90;;;23.60;61.99;99225.75;5020647;28;119566;-78
2022/07/09 07:39:35;;;;;;;7.20;2.67;;;19.40;99.90;;;23.52;62.40;99222.25;5020894;28;119399;-76
2022/07/09 07:42:07;;;;;;;8.52;2.75;;;19.60;99.90;;;23.49;63.23;99213.97;5020394;28;129851;-79
2022/07/09 07:44:36;;;;;;;11.82;3.10;;;19.80;99.90;;;23.49;63.35;99217.50;5019764;28;130139;-76
2022/07/09 07:47:05;;;;;;;7.72;2.60;;;19.90;99.90;;;23.42;63.20;99223.13;5020902;28;119470;-76
2022/07/09 07:49:34;;;;;;;3.72;2.20;;;19.40;99.90;;;23.43;63.05;99208.06;5020792;28;119934;-77
2022/07/09 07:52:03;;;;;;;6.38;2.60;;;19.40;99.90;;;23.52;62.41;99216.69;5019404;28;129901;-77
2022/07/09 07:54:33;;;;;;;3.53;2.20;;;19.90;99.90;;;23.56;62.33;99205.63;5023030;28;130906;-77
2022/07/09 07:57:01;;;;;;;6.85;3.13;;;19.80;99.90;;;23.58;63.16;99213.53;5020632;28;119436;-76
2022/07/09 07:59:31;;;;;;;4.45;2.83;;;20.00;99.90;;;23.55;62.23;99200.47;5005639;28;118439;-73
2022/07/09 08:02:00;;;;;;;4.47;2.33;;;19.90;99.90;;;23.51;63.32;99206.84;5020006;28;130932;-77
2022/07/09 08:04:28;;;;;;;4.50;2.55;;;20.10;99.90;;;23.39;64.13;99206.50;5005244;28;129092;-78
2022/07/09 08:06:57;;;;;;;6.13;2.20;;;20.20;99.90;;;23.47;63.87;99202.50;5022481;28;119345;-79
2022/07/09 08:09:26;;;;;;;4.93;2.88;;;20.30;99.90;;;23.72;61.94;99207.06;5020714;28;119342;-77
2022/07/09 08:11:54;;;;;;;7.10;2.80;;;20.70;99.90;;;23.95;62.52;99200.97;5020287;28;130563;-75
2022/07/09 08:14:23;;;;;;;4.82;2.67;;;20.90;99.90;;;24.01;60.49;99207.63;5018632;28;129862;-78
2022/07/09 08:16:52;;;;;;;4.47;2.38;;;20.60;99.90;;;23.40;60.66;99202.56;5018711;28;122047;-74
2022/07/09 08:19:22;;;;;;;7.70;2.88;;;19.60;99.90;;;23.08;62.47;99209.06;5020102;28;121736;-79
2022/07/09 08:21:51;;;;;;;6.93;2.63;;;19.60;99.90;;;23.47;62.33;99202.50;5019805;28;130484;-75
2022/07/09 08:24:19;;;;;;;6.22;2.70;;;20.10;99.90;;;23.75;61.36;99195.97;5019878;28;130410;-75
2022/07/09 08:26:48;;;;;;;5.05;2.30;;;20.70;99.90;;;23.94;60.42;99191.88;5020274;28;120757;-77
2022/07/09 08:29:16;;;;;;;7.80;2.83;;;20.90;99.90;;;23.54;60.90;99196.91;5020151;28;119530;-75
2022/07/09 08:31:44;;;;;;;4.95;2.60;;;19.90;99.90;;;23.60;62.19;99189.75;5019782;28;130502;-77
2022/07/09 08:34:14;;;;;;;6.05;2.63;;;20.50;99.90;;;23.89;60.55;99188.75;5020145;28;129459;-75
2022/07/09 08:36:43;;;;;;;5.70;2.50;;;20.90;99.90;;;23.54;60.85;99196.91;5020070;28;120139;-75
2022/07/09 08:39:12;;;;;;;4.03;2.63;;;20.40;99.90;;;23.03;62.23;99190.88;5004803;28;121129;-76
2022/07/09 08:41:40;;;;;;;4.38;2.80;;;19.60;99.90;;;23.07;64.30;99185.31;5018200;28;130318;-75
2022/07/09 08:44:13;;;;;;;7.53;3.05;;;19.80;99.90;;;23.30;62.76;99188.38;5019360;28;129755;-75
2022/07/09 08:46:41;;;;;;;8.50;3.05;;;20.10;99.90;;;22.82;63.86;99197.31;5005202;28;119764;-77
2022/07/09 08:49:10;;;;;;;5.43;3.03;;;19.20;99.90;;;22.71;65.04;99186.28;5019685;28;119583;-75
2022/07/09 08:51:43;;;;;;;4.13;2.55;;;19.60;99.90;;;22.90;63.77;99173.94;5019887;28;129777;-78
2022/07/09 08:54:12;;;;;;;4.68;2.72;;;20.00;99.90;;;22.90;64.56;99182.25;5020662;28;129884;-76
2022/07/09 08:56:41;;;;;;;6.55;3.25;;;20.40;99.90;;;23.51;63.40;99186.66;5021764;28;119280;-79
2022/07/09 08:59:10;;;;;;;5.82;3.13;;;21.10;99.90;;;23.68;60.68;99179.41;5019782;28;120143;-78
2022/07/09 09:01:39;;;;;;;4.57;2.63;;;20.50;99.90;;;23.94;60.99;99180.00;5019494;28;130921;-76
2022/07/09 09:04:08;;;;;;;6.72;3.33;;;20.80;99.90;;;23.78;61.63;99180.50;5004530;28;128352;-78
2022/07/09 09:06:41;;;;;;;5.72;2.80;;;20.70;99.90;;;23.81;61.15;99176.91;5018416;28;121768;-76
2022/07/09 09:09:10;;;;;;;4.90;3.08;;;20.60;99.90;;;23.68;60.92;99191.28;5001899;28;121786;-79
2022/07/09 09:11:39;;;;;;;4.93;3.00;;;19.70;99.90;;;23.24;62.42;99184.47;5018963;28;130551;-77
2022/07/09 09:14:08;;;;;;;5.68;3.20;;;19.70;99.90;;;23.06;62.67;99178.22;5019409;28;130044;-77
2022/07/09 09:16:43;;;;;;;6.18;3.53;;;19.70;99.90;;;23.47;62.63;99185.91;5019489;28;120022;-73
2022/07/09 09:19:12;;;;;;;5.43;3.58;;;20.20;99.90;;;23.82;61.88;99178.50;5004635;28;119268;-75
2022/07/09 09:21:42;;;;;;;8.27;3.90;;;20.40;99.90;;;23.88;60.92;99179.66;5022391;28;130348;-76
2022/07/09 09:24:10;;;;;;;4.28;3.17;;;20.10;99.90;;;23.73;60.24;99178.94;5007817;28;128397;-75
2022/07/09 09:26:39;;;;;;;5.38;3.10;;;19.80;99.90;;;23.54;60.19;99179.50;5004864;28;120006;-78
2022/07/09 09:29:07;;;;;;;4.22;2.80;;;19.50;99.90;;;23.33;61.88;99170.94;5004774;28;119453;-76
2022/07/09 09:31:37;;;;;;;4.50;3.05;;;19.90;99.90;;;23.69;62.83;99180.97;5021044;28;129936;-76
2022/07/09 09:34:15;;;;;;;4.20;2.40;;;20.70;99.90;;;23.86;59.30;99176.50;5007620;28;129713;-78
2022/07/09 09:36:47;;;;;;;3.72;2.47;;;20.90;99.90;;;24.01;59.20;99175.19;5008010;28;118763;-77
2022/07/09 09:39:19;;;;;;;6.05;2.40;;;20.70;99.90;;;24.43;57.69;99182.66;5022495;28;119222;-79
2022/07/09 09:41:49;;;;;;;5.97;2.33;;;21.40;99.90;;;24.64;56.36;99171.34;4990621;28;129714;-74
2022/07/09 09:44:20;;;;;;;3.88;2.35;;;21.60;99.90;;;25.18;54.56;99165.09;5022103;28;129558;-76
2022/07/09 09:46:49;;;;;;;4.22;2.22;;;22.00;99.90;;;25.15;53.17;99174.25;5022355;28;119656;-73
2022/07/09 09:49:18;;;;;;;4.30;2.17;;;21.70;99.90;;;25.09;52.47;99162.84;5008140;28;118359;-75
2022/07/09 09:52:01;;;;;;;5.90;2.40;;;21.00;99.90;;;25.09;54.74;99165.59;5021999;28;129887;-77
2022/07/09 09:54:32;;;;;;;4.97;2.30;;;21.50;99.90;;;25.37;53.46;99160.06;5006955;28;129463;-75
2022/07/09 09:57:05;;;;;;;8.43;2.65;;;21.10;99.90;;;25.45;53.53;99167.09;5006911;28;120855;-77
2022/07/09 09:59:37;;;;;;;6.10;2.30;;;21.40;99.90;;;25.24;54.06;99157.06;5007658;28;120832;-82
2022/07/09 10:02:09;;;;;;;5.63;2.30;;;21.00;99.90;;;25.08;53.17;99166.03;5004017;28;130376;-82
2022/07/09 10:04:38;;;;;;;3.33;2.03;;;20.80;99.90;;;24.95;52.63;99154.72;5004433;28;129679;-79
2022/07/09 10:07:09;;;;;;;2.90;2.08;;;20.30;99.90;;;24.80;53.67;99147.78;5022642;28;119663;-77
2022/07/09 10:09:38;;;;;;;2.97;2.00;;;20.50;99.90;;;24.86;53.61;99132.25;5023806;28;119623;-75
2022/07/09 10:12:09;;;;;;;5.90;2.00;;;20.90;99.90;;;25.34;51.35;99145.06;5007351;28;129251;-75
2022/07/09 10:14:39;;;;;;;4.10;1.80;;;21.30;99.90;;;25.60;52.61;99137.09;5022307;28;129614;-73
2022/07/09 10:17:14;;;;;;;4.68;2.17;;;22.10;99.90;;;25.62;51.58;99132.69;5026026;28;119456;-74
2022/07/09 10:19:54;;;;;;;3.95;2.08;;;21.50;99.90;;;25.45;51.47;99137.31;5007161;28;117951;-75